Messwerte Songea

Temperatur

Temperatur
°C
1614546000 0.00 0.00 18
1614549600 1.00 1.00 18
1614553200 2.00 2.00 18
1614556800 3.00 3.00
1614560400 4.00 4.00
1614564000 5.00 5.00 18
1614567600 6.00 6.00 18
1614571200 7.00 7.00 19
1614574800 8.00 8.00 19
1614578400 9.00 9.00 19
1614582000 10.00 10.00 20
1614585600 11.00 11.00 21
1614589200 12.00 12.00 24
1614592800 13.00 13.00
1614596400 14.00 14.00
1614600000 15.00 15.00
1614603600 16.00 16.00
1614607200 17.00 17.00
1614610800 18.00 18.00
1614614400 19.00 19.00 23
1614618000 20.00 20.00
1614621600 21.00 21.00 22
1614625200 22.00 22.00 22
1614628800 23.00 23.00 21

Aktuellste Messwerte

Wettercharakter
Wetter: wechselnd bewölkt
Temperatur
21 °C
Feuchtigkeit
90 %
Wind
5 km/hWindrichtung: West
Luftdruck
1016 hPa
Messzeit: 1. März 2021, 23.00Datenquelle: METAR

Weitere Messstationen in der Nähe

Messstation Temperatur Entfernung
Lichinga 18 °C 294 km
Iringa - 335 km
Lilongwe International Airport - 396 km
Morogoro - 484 km

Wind

Windrichtung Böen Mittelwind
° km/h km/h
1614546000 0.00 23.00 - 0.00 60° 5
1614549600 1.00 0.00 - 1.00 5
1614553200 2.00 1.00 - 2.00 0
1614556800 3.00 2.00 - 3.00
1614560400 4.00 3.00 - 4.00
1614564000 5.00 4.00 - 5.00 0
1614567600 6.00 5.00 - 6.00 0
1614571200 7.00 6.00 - 7.00 0
1614574800 8.00 7.00 - 8.00 180° 5
1614578400 9.00 8.00 - 9.00 250° 10
1614582000 10.00 9.00 - 10.00 0
1614585600 11.00 10.00 - 11.00 0
1614589200 12.00 11.00 - 12.00 290° 20
1614592800 13.00 12.00 - 13.00
1614596400 14.00 13.00 - 14.00
1614600000 15.00 14.00 - 15.00
1614603600 16.00 15.00 - 16.00
1614607200 17.00 16.00 - 17.00
1614610800 18.00 17.00 - 18.00
1614614400 19.00 18.00 - 19.00 250° 10
1614618000 20.00 19.00 - 20.00
1614621600 21.00 20.00 - 21.00 0
1614625200 22.00 21.00 - 22.00 270° 10
1614628800 23.00 22.00 - 23.00 290° 5

Ihre Wetterstation

Fehlt Ihre Wetterstation auf unserem Portal?

Schreiben Sie an network@meteonews.ch